KDFW/DFW METAR and TAF weather

Enter ICAO airport designator
Station Type Date Time Source
KDFW METAR 2021/09/27 06:53 UTC NOAA

KDFW 270653Z 19007KT 10SM BKN250 21/12 A2998 RMK AO2 SLP144 T02110122


Station Type Date Time Source
KDFW Decoded METAR 2021/09/27 06:53 UTC NOAA

DALLAS/FT. WORTH INTERNATIONAL AIRPORT , TX, United States (KDFW) 32-54N 097-02W 174M
Sep 27, 2021 - 02:53 AM EDT / 2021.09.27 0653 UTC
Wind: from the S (190 degrees) at 8 MPH (7 KT):0
Visibility: 10 mile(s):0
Sky conditions: mostly cloudy
Temperature: 70.0 F (21.1 C)
Dew Point: 54.0 F (12.2 C)
Relative Humidity: 56%
Pressure (altimeter): 29.98 in. Hg (1015 hPa)
ob: KDFW 270653Z 19007KT 10SM BKN250 21/12 A2998 RMK AO2 SLP144 T02110122
cycle: 7

Station Type Date Time Source
KDFW TAF 2021/09/27 06:27 UTC NOAA

TAF KDFW 270524Z 2706/2812 17007KT P6SM SCT250

Example: see airport list